Bandon, OR

6:11 PM PST on January 29, 2015 (GMT -0800)
KORBANDO6 | Change Station
CLOSE
Current Station
Personal Weather Station
Location: Bandon, OR
Elevation: 82 ft
Nearby Weather Stations

Elev 82 ft 43.12 °N, 124.43 °W | Updated 49 seconds ago

Clear
Clear
50.8 °F
Feels Like 50.8 °F
N
0.0
Wind Variable Wind from NNE
Gusts 2.0 mph

Today
High -- | Low -- °F
--% Chance of Precip.
Yesterday
High -- | Low -- °F
Precip. -- in
7:36 AM 5:25 PM
Waxing Gibbous, 79% visible
Pressure 30.22 in
Visibility 8.0 miles
Clouds Clear
Dew Point 49 °F
Humidity 92%
Rainfall 0.00 in
Snow Depth Not available.
UV 0 out of 12
Pollen 4.10 out of 12
Air Quality Not available.
Flu Activity Not available.
METAR KOTH 300155Z 01009KT 8SM CLR 11/11 A3022 RMK AO1

More Conditions Fewer Conditions

Pressure 30.22 in
Visibility 8.0 miles
Clouds Clear
Dew Point 49 °F
Humidity 92%
Rainfall 0.00 in
Snow Depth Not available.
UV 0 out of 12
Pollen 4.10 out of 12
Air Quality Not available.
Flu Activity Not available.
METAR KOTH 300155Z 01009KT 8SM CLR 11/11 A3022 RMK AO1

More Conditions Fewer Conditions

10-Day Weather Forecast

Almanac

Astronomy

Jan. 29, 2015 Rise Set
Actual Time
Civil Twilight
Nautical Twilight
Astronomical Twilight
Moon
Length of Visible Light
Length of Day
Tomorrow will be .
, % of the Moon is Illuminated

Today's Extremes

State Highs State Lows

Community

WunderPhotos

Upload Photos

1,791,689 photos uploaded!

WunderBlogs® & News

Nearby

Air Quality

  Air Quality AQ Index Pollutant
Not available.

Snow Depth

Station Depth Elevation

Earthquake Activity

City Distance Mag. Time & Date
Minimum magnitude displayed is 2.5.

Coastal Water Temperatures

Place Temperature

Nearby Weather Stations